x

Diamond Shoals (41025) Wave Buoy

11:50pm - Fri 28th Apr 2017 All times are EDT. -4 hours from GMT.

  • Sig Wave height 3.9ft
  • Swell Direction
  • Peak Period 7s
  • Average Period 5s
  • Wind
    18mph, 22mph gusts
  • Sea Temp 76°f
  • 空気 Temp 77°f
  • Sea Pressure 1021.7mb
  • Diamond Shoals
  • Diamond Shoals

More Historic Weather Station data

Upgrade to MSW Pro to gain access to the past 30 days of data for over 8000 Wavebouys and Weather Stations around the globe.

Join Pro

Comparision Forecast

View Surf forecast
   
Fri 04/28 11:50pm 4ft 7s 5s 18 22 mph 1021.7mb 76f 77f
10:50pm 4.5ft 8s 5s 18 22 mph 1021.5mb 76f 77f
8:50pm 4.5ft 8s 5s 18 20 mph 1020.8mb 76f 77f
7:50pm 4.5ft 7s 5s 18 22 mph 1020.1mb 76f 77f
6:50pm 4.5ft 8s 5s 18 20 mph 1020.2mb 76f 78f
5:50pm 4.5ft 8s 5s 18 22 mph 1020mb 76f 78f
4:50pm 4.5ft 8s 5s 20 22 mph 1019.6mb 76f 78f
3:50pm 4.5ft 7s 5s 20 22 mph 1019.8mb 76f 78f
2:50pm 5ft 8s 5s 18 22 mph 1020.2mb 76f 78f
1:50pm 5ft 8s 5s 18 20 mph 1020.3mb 76f 78f
12:50pm 5.5ft 8s 5s 20 22 mph 1020.1mb 76f 78f
11:50am 5.5ft 8s 5s 20 25 mph 1019.9mb 76f 77f
10:50am 5.5ft 8s 5s 20 22 mph 1019.6mb 76f 77f
9:50am 5ft 6s 5s 22 27 mph 1018.9mb 76f 77f
8:50am 5ft 6s 5s 20 25 mph 1018.9mb 76f 77f
7:50am 5ft 8s  -  22 25 mph 1018.4mb 77f 77f
6:50am 5ft 8s 5s 20 25 mph 1018mb 77f 77f
5:50am 5.5ft 6s 5s 20 25 mph 1017mb 77f 77f
4:50am 5.5ft 8s 5s 20 25 mph 1016.2mb 77f 77f
3:50am 5ft 8s 5s 22 25 mph 1015.4mb 77f 77f
2:50am 5.5ft 8s 5s 22 27 mph 1015.6mb 77f 77f
1:50am 5ft 6s 5s 20 27 mph 1016.1mb 77f 77f
12:50am 6ft 6s 5s 20 25 mph 1016.1mb 77f 77f
Thu 04/27 11:50pm 6ft 6s 5s 22 25 mph 1015.5mb 77f 77f
10:50pm 5ft 8s 5s 22 27 mph 1015.1mb 77f 77f
9:50pm 5ft 9s 5s 22 27 mph 1014.7mb 77f 77f
8:50pm 5ft 9s 5s 20 25 mph 1014mb 77f 77f
7:50pm 5ft 8s 5s 25 27 mph 1013.8mb 77f 77f
6:50pm 5ft 8s 5s 27 31 mph 1013.4mb 77f 78f
5:50pm 5ft 8s 6s 20 25 mph 1013.5mb 78f 78f
4:50pm 4.5ft 8s 5s 18 22 mph 1013.6mb 78f 77f
3:50pm 5ft 9s 6s 18 20 mph 1013.4mb 78f 76f
2:50pm 4.5ft 9s 5s 16 18 mph 1013.4mb 77f 76f
1:50pm 5ft 9s 6s 16 18 mph 1014.2mb 77f 76f
12:50pm 5ft 9s 5s 16 20 mph 1014.5mb 77f 77f
11:50am 5.5ft 9s 5s 16 20 mph 1014.9mb 77f 77f
10:50am 5ft 8s 5s 18 20 mph 1014.9mb 77f 77f
9:50am 5ft 9s 5s 18 22 mph 1014.3mb 77f 77f
8:50am 5ft 9s 6s 16 18 mph 1014.2mb 77f 76f
7:50am 5.5ft 9s 6s 13 16 mph 1014mb 77f 76f
6:50am 6ft 9s 6s 16 20 mph 1013.7mb 77f 76f
5:50am 5.5ft 8s 5s 18 20 mph 1012.9mb 77f 75f
4:50am 6ft 9s 6s 20 22 mph 1012.3mb 77f 76f
3:50am 6ft 10s 5s 22 27 mph 1011.9mb 77f 76f
2:50am 6.5ft 9s 6s 22 27 mph 1011.8mb 76f 76f
1:50am 6.5ft 9s 6s 22 25 mph 1011.9mb 76f 76f
12:50am 6ft 9s 6s 20 25 mph 1012mb 76f 76f
Wed 04/26 11:50pm 6ft 9s 6s 20 22 mph 1012.1mb 76f 76f
10:50pm 6ft 9s 6s 18 22 mph 1012mb 77f 75f
9:50pm 5ft 9s 6s 16 20 mph 1011.8mb 77f 75f
8:50pm 5.5ft 9s 7s 13 18 mph 1011.1mb 77f 74f
7:50pm 5ft 9s 7s 11 16 mph 1010.8mb 77f 73f
6:50pm 5ft 9s 7s 11 13 mph 1010.6mb 77f 72f
5:50pm 5ft 9s 6s 11 13 mph 1010.4mb 77f 71f
4:50pm 5ft 8s 7s 11 16 mph 1009.8mb 77f 71f
3:50pm 5.5ft 9s 7s 13 16 mph 1009.5mb 77f 70f
2:50pm 5.5ft 10s 7s 13 18 mph 1010.1mb 77f 69f
1:50pm 5.5ft 10s 6s 11 16 mph 1010.1mb 76f 68f
12:50pm 6ft 9s 6s 13 16 mph 1010.5mb 76f 69f
11:50am 6.5ft 9s 7s 11 16 mph 1010.5mb 76f 68f
10:50am 6.5ft 9s 7s 11 13 mph 1010mb 77f 67f
9:50am 6.5ft 9s 6s 13 18 mph 1009.3mb 77f 67f
8:50am 6ft 9s 6s 16 20 mph 1008.6mb 77f 69f
7:50am 7ft 10s 6s 16 20 mph 1007.9mb 77f 69f
6:50am 8ft 10s 7s 16 20 mph 1007.1mb 77f 69f
5:50am 7ft 9s 6s 13 16 mph 1006.1mb 77f 68f
4:50am 8ft 9s 6s 13 18 mph 1005.6mb 77f 68f
3:50am 7.5ft 9s 6s 18 25 mph 1005.3mb 77f 69f
2:50am 8.5ft 9s 6s 20 25 mph 1005.2mb 77f 69f
1:50am 8ft 9s 6s 20 25 mph 1005.2mb 77f 69f
12:50am 8.5ft 10s 6s 20 27 mph 1005.3mb 77f 71f
Tue 04/25 11:50pm 8ft 10s 6s 22 27 mph 1004.9mb 77f 72f
10:50pm 8ft 10s 6s 20 25 mph 1004.6mb 78f 72f
9:50pm 8ft 9s 6s 18 22 mph 1004.5mb 78f 71f
8:50pm 7.5ft 10s 7s 20 25 mph 1004mb 78f 71f
7:50pm 7.5ft 10s 7s 18 22 mph 1003.4mb 78f 72f
6:50pm 7.5ft 10s 7s 13 18 mph 1003.4mb 78f 73f
5:50pm 7ft 11s 7s 13 18 mph 1002.9mb 78f 73f
4:50pm 7ft 10s 7s 9 13 mph 1002.8mb 78f 71f
3:50pm 7ft 10s 7s 7 9 mph 1002.9mb 78f 70f
2:50pm 9ft 11s 8s 2 4 mph 1003.6mb 78f 69f
1:50pm 8ft 11s 8s 7 11 mph 1003.5mb 78f 68f
12:50pm 10ft 11s 8s 4 9 mph 1003.6mb 78f 67f
11:50am 11ft 11s 8s 16 22 mph 1004.1mb 78f 68f
10:50am 10.5ft 11s 8s 16 20 mph 1003.3mb 78f 75f
9:50am 14ft 11s 9s 16 20 mph 1003.2mb 78f 74f
8:50am 12ft 12s 8s 13 16 mph 1003.6mb 78f 73f
7:50am 12.5ft 11s 8s 20 22 mph 1002.8mb 77f 73f
6:50am 13ft 10s  -  20 25 mph 1001.8mb 77f 73f
5:50am 14ft 11s 8s 25 34 mph 1000.5mb 77f 74f